Time;durP1;ratioP1;P1;durP2;ratioP2;P2;SDS_P1;SDS_P2;PMS_P1;PMS_P2;Temp;Humidity;BMP_temperature;BMP_pressure;BME280_temperature;BME280_humidity;BME280_pressure;Samples;Min_cycle;Max_cycle;Signal;HPM_P1;HPM_P2
2022/06/26 00:00:07;;;;;;;2.28;2.08;;;;;;;24.24;61.65;94602.38;4918170;29;20235;-78
2022/06/26 00:02:34;;;;;;;4.32;2.28;;;;;;;24.23;61.49;94613.84;4917691;29;20195;-77
2022/06/26 00:05:01;;;;;;;4.88;3.63;;;;;;;24.22;61.79;94609.63;4917948;29;20190;-74
2022/06/26 00:07:28;;;;;;;4.90;2.90;;;;;;;24.19;61.71;94605.66;4917377;29;20202;-76
2022/06/26 00:09:55;;;;;;;4.40;2.50;;;;;;;24.17;61.77;94602.44;4918289;29;20200;-79
2022/06/26 00:12:23;;;;;;;5.38;2.65;;;;;;;24.14;61.91;94608.16;4917990;29;20210;-77
2022/06/26 00:14:50;;;;;;;5.18;2.60;;;;;;;24.15;61.83;94611.56;4917560;29;20196;-78
2022/06/26 00:17:17;;;;;;;2.88;2.58;;;;;;;24.13;61.93;94616.97;4917748;29;20192;-79
2022/06/26 00:19:44;;;;;;;7.13;3.08;;;;;;;24.10;61.81;94614.84;4917105;29;20230;-81
2022/06/26 00:22:11;;;;;;;3.20;2.58;;;;;;;24.09;61.80;94615.84;4917566;29;20203;-79
2022/06/26 00:24:38;;;;;;;2.95;2.60;;;;;;;24.07;62.05;94617.88;4917492;29;20214;-81
2022/06/26 00:27:06;;;;;;;5.35;2.83;;;;;;;24.00;62.06;94606.72;4917535;29;20196;-80
2022/06/26 00:29:35;;;;;;;6.32;2.83;;;;;;;24.01;62.02;94603.91;4916936;29;20231;-75
2022/06/26 00:32:03;;;;;;;4.90;2.95;;;;;;;24.00;62.00;94598.88;4917560;29;20196;-74
2022/06/26 00:34:30;;;;;;;4.38;2.90;;;;;;;23.98;62.17;94600.94;4916842;29;20200;-76
2022/06/26 00:36:57;;;;;;;5.43;3.30;;;;;;;23.97;62.26;94597.53;4917615;29;20206;-79
2022/06/26 00:39:24;;;;;;;7.43;2.92;;;;;;;23.95;62.18;94602.16;4916902;29;20223;-74
2022/06/26 00:41:51;;;;;;;4.68;3.47;;;;;;;23.92;62.55;94592.19;4917158;29;20210;-74
2022/06/26 00:44:21;;;;;;;3.47;3.17;;;;;;;23.91;62.48;94592.38;4916745;29;20589;-77
2022/06/26 00:46:50;;;;;;;4.20;3.50;;;;;;;23.86;62.87;94587.84;4917134;29;20207;-80
2022/06/26 00:49:17;;;;;;;7.63;3.60;;;;;;;23.88;62.91;94598.06;4916561;29;20198;-77
2022/06/26 00:51:47;;;;;;;4.32;2.85;;;;;;;23.87;63.07;94599.06;4917117;29;20208;-77
2022/06/26 00:54:14;;;;;;;5.05;3.50;;;;;;;23.84;63.02;94597.72;4917174;29;20204;-76
2022/06/26 00:56:42;;;;;;;12.23;3.72;;;;;;;23.84;62.86;94599.53;4917161;29;20191;-79
2022/06/26 00:59:08;;;;;;;6.82;3.88;;;;;;;23.83;63.08;94597.91;4917363;29;20203;-76
2022/06/26 01:01:35;;;;;;;6.07;3.65;;;;;;;23.80;62.99;94598.38;4915327;29;20231;-80
2022/06/26 01:04:04;;;;;;;6.22;3.20;;;;;;;23.80;63.19;94603.59;4916956;29;20198;-78
2022/06/26 01:06:32;;;;;;;6.15;3.35;;;;;;;23.77;63.12;94610.84;4916579;29;20196;-78
2022/06/26 01:08:59;;;;;;;6.13;3.53;;;;;;;23.76;63.06;94611.88;4916688;29;20664;-77
2022/06/26 01:11:26;;;;;;;5.75;3.90;;;;;;;23.74;63.15;94606.06;4916958;29;20203;-79
2022/06/26 01:13:54;;;;;;;5.57;3.00;;;;;;;23.71;63.13;94600.50;4916910;29;20192;-83
2022/06/26 01:16:22;;;;;;;5.95;3.55;;;;;;;23.69;63.29;94605.13;4916189;29;20211;-79
2022/06/26 01:18:52;;;;;;;6.55;3.53;;;;;;;23.69;63.42;94611.16;4916641;29;20191;-84
2022/06/26 01:21:23;;;;;;;7.70;3.78;;;;;;;23.68;63.27;94614.00;4915975;29;20250;-76
2022/06/26 01:23:52;;;;;;;3.45;3.10;;;;;;;23.67;63.51;94620.25;4916245;29;20765;-74
2022/06/26 01:26:19;;;;;;;4.30;3.13;;;;;;;23.65;63.40;94619.66;4916368;29;20203;-78
2022/06/26 01:28:46;;;;;;;5.97;3.35;;;;;;;23.63;63.52;94613.84;4916723;29;20188;-75
2022/06/26 01:31:13;;;;;;;5.20;3.00;;;;;;;23.60;63.67;94614.28;4916386;29;20203;-75
2022/06/26 01:33:40;;;;;;;4.75;2.75;;;;;;;23.56;63.59;94605.28;4916130;29;20210;-76
2022/06/26 01:36:07;;;;;;;4.03;2.75;;;;;;;23.55;63.59;94620.16;4916238;29;20200;-76
2022/06/26 01:38:34;;;;;;;3.47;3.00;;;;;;;23.52;63.72;94617.97;4916106;29;20199;-77
2022/06/26 01:41:03;;;;;;;5.18;3.00;;;;;;;23.49;63.79;94616.63;4916387;29;20219;-76
2022/06/26 01:43:31;;;;;;;4.03;3.15;;;;;;;23.50;63.62;94622.63;4915853;29;20192;-76
2022/06/26 01:46:00;;;;;;;3.42;2.80;;;;;;;23.45;63.86;94625.91;4916404;29;20198;-79
2022/06/26 01:48:27;;;;;;;5.70;3.15;;;;;;;23.39;63.75;94608.47;4916082;29;20199;-76
2022/06/26 01:50:56;;;;;;;3.97;2.83;;;;;;;23.45;63.89;94628.50;4916637;29;20587;-79
2022/06/26 01:53:24;;;;;;;4.32;2.92;;;;;;;23.43;64.15;94633.13;4916085;29;20192;-84
2022/06/26 01:55:51;;;;;;;4.20;2.60;;;;;;;23.42;64.23;94642.00;4916202;29;20203;-81
2022/06/26 01:58:19;;;;;;;4.63;3.15;;;;;;;23.42;64.00;94647.22;4915837;29;20195;-83
2022/06/26 02:00:48;;;;;;;4.80;2.70;;;;;;;23.41;64.09;94639.59;4916516;29;20231;-81
2022/06/26 02:03:16;;;;;;;4.47;2.92;;;;;;;23.39;64.16;94644.22;4915926;29;20239;-83
2022/06/26 02:05:43;;;;;;;3.45;2.60;;;;;;;23.36;64.07;94640.25;4915806;29;20667;-83
2022/06/26 02:08:10;;;;;;;3.75;2.63;;;;;;;23.38;64.06;94645.25;4915675;29;20219;-84
2022/06/26 02:13:39;;;;;;;3.58;2.67;;;;;;;23.35;64.24;94656.13;4915502;29;20207;-85
2022/06/26 02:16:09;;;;;;;5.35;2.58;;;;;;;23.35;63.97;94658.72;4915556;29;20244;-82
2022/06/26 02:18:36;;;;;;;3.58;2.15;;;;;;;23.31;64.07;94653.16;4916058;29;20278;-84
2022/06/26 02:21:07;;;;;;;3.17;2.28;;;;;;;23.31;64.20;94649.75;4916116;29;20323;-81
2022/06/26 02:23:34;;;;;;;4.18;2.22;;;;;;;23.28;63.94;94640.56;4915920;29;20318;-83
2022/06/26 02:26:01;;;;;;;2.53;2.03;;;;;;;23.31;64.28;94647.13;4916159;29;20203;-85
2022/06/26 02:28:30;;;;;;;4.15;2.25;;;;;;;23.29;64.26;94642.94;4915601;29;20196;-77
2022/06/26 02:30:57;;;;;;;2.60;1.92;;;;;;;23.28;64.45;94646.56;4915330;29;20252;-83
2022/06/26 02:33:24;;;;;;;11.40;2.55;;;;;;;23.27;64.69;94647.59;4916062;29;20195;-80
2022/06/26 02:35:52;;;;;;;3.22;2.30;;;;;;;23.18;64.81;94632.41;4915471;29;20679;-85
2022/06/26 02:38:19;;;;;;;4.55;2.40;;;;;;;23.25;64.74;94647.00;4915267;29;20274;-86
2022/06/26 02:40:46;;;;;;;4.07;2.35;;;;;;;23.24;64.74;94642.00;4915264;29;20580;-84
2022/06/26 02:43:14;;;;;;;4.90;2.33;;;;;;;23.23;64.66;94649.03;4915090;29;20650;-86
2022/06/26 02:45:42;;;;;;;5.43;2.33;;;;;;;23.22;64.74;94652.63;4915426;29;20199;-84
2022/06/26 02:48:09;;;;;;;9.63;2.65;;;;;;;23.18;64.77;94650.69;4915281;29;20195;-85
2022/06/26 02:50:36;;;;;;;5.28;2.10;;;;;;;23.19;64.64;94666.13;4915205;29;20195;-78
2022/06/26 02:53:04;;;;;;;5.45;2.70;;;;;;;23.19;64.74;94666.13;4915481;29;20200;-79
2022/06/26 02:55:31;;;;;;;2.63;2.03;;;;;;;23.19;64.71;94663.53;4914440;29;20195;-81
2022/06/26 02:57:58;;;;;;;3.00;2.40;;;;;;;23.17;65.00;94659.53;4915120;29;20184;-80
2022/06/26 03:00:25;;;;;;;7.28;2.53;;;;;;;23.18;65.00;94659.28;4914677;29;20227;-77
2022/06/26 03:02:53;;;;;;;2.75;2.20;;;;;;;23.18;65.12;94666.34;4914777;29;20700;-77
2022/06/26 03:05:20;;;;;;;3.13;2.30;;;;;;;23.17;65.07;94665.53;4914548;29;20251;-82
2022/06/26 03:07:47;;;;;;;2.38;2.13;;;;;;;23.13;65.10;94660.97;4914546;29;20188;-79
2022/06/26 03:10:14;;;;;;;2.10;1.90;;;;;;;23.17;64.95;94673.38;4914336;29;20191;-80
2022/06/26 03:12:45;;;;;;;2.45;2.10;;;;;;;23.18;65.52;94671.53;4914926;29;20199;-83
2022/06/26 03:15:13;;;;;;;3.75;2.40;;;;;;;23.18;65.20;94677.56;4914383;29;20283;-84
2022/06/26 03:17:40;;;;;;;6.88;2.72;;;;;;;23.18;65.31;94680.16;4914732;29;20283;-80
2022/06/26 03:20:10;;;;;;;5.45;2.35;;;;;;;23.18;65.48;94679.38;4914433;29;20228;-80
2022/06/26 03:22:37;;;;;;;2.42;1.75;;;;;;;23.18;65.21;94684.59;4914630;29;20206;-84
2022/06/26 03:25:05;;;;;;;3.40;2.38;;;;;;;23.19;65.35;94681.00;4916069;29;20195;-86
2022/06/26 03:27:32;;;;;;;3.63;2.30;;;;;;;23.18;65.21;94679.38;4918703;29;20192;-85
2022/06/26 03:29:59;;;;;;;3.22;2.20;;;;;;;23.21;65.40;94684.16;4914597;29;20196;-83
2022/06/26 03:32:26;;;;;;;2.47;1.95;;;;;;;23.22;65.32;94677.94;4914656;29;20643;-85
2022/06/26 03:34:53;;;;;;;4.97;2.10;;;;;;;23.18;65.21;94672.34;4914543;29;20218;-82
2022/06/26 03:37:21;;;;;;;2.92;2.10;;;;;;;23.21;65.29;94681.56;4914691;29;20196;-84
2022/06/26 03:40:00;;;;;;;7.85;2.25;;;;;;;23.23;65.14;94690.78;4914647;29;20203;-85
2022/06/26 03:42:27;;;;;;;5.30;2.30;;;;;;;23.23;65.34;94695.22;4914422;29;20223;-76
2022/06/26 03:44:54;;;;;;;2.97;2.58;;;;;;;23.22;65.38;94694.38;4914898;29;20199;-82
2022/06/26 03:47:21;;;;;;;3.22;2.05;;;;;;;23.12;65.37;94675.84;4914336;29;20579;-81
2022/06/26 03:49:52;;;;;;;7.38;2.50;;;;;;;23.23;65.22;94692.59;4914365;29;20195;-81
2022/06/26 03:52:22;;;;;;;5.60;2.53;;;;;;;23.20;65.44;94693.81;4914051;29;20278;-79
2022/06/26 03:54:49;;;;;;;3.40;2.40;;;;;;;23.23;65.24;94701.22;4914204;29;20292;-82
2022/06/26 03:57:16;;;;;;;3.28;2.10;;;;;;;23.21;65.32;94699.81;4914149;29;20374;-83
2022/06/26 03:59:43;;;;;;;5.05;2.25;;;;;;;23.25;65.52;94703.59;4914346;29;20192;-85
2022/06/26 04:02:09;;;;;;;5.18;2.33;;;;;;;23.27;65.75;94709.38;4913927;29;20687;-78
2022/06/26 04:04:36;;;;;;;4.72;2.42;;;;;;;23.28;65.55;94708.41;4913887;29;20706;-81
2022/06/26 04:07:04;;;;;;;4.20;2.47;;;;;;;23.31;65.57;94704.53;4914051;29;20203;-85
2022/06/26 04:09:32;;;;;;;5.40;2.45;;;;;;;23.36;65.68;94704.69;4913915;29;20195;-82
2022/06/26 04:11:59;;;;;;;6.68;2.90;;;;;;;23.44;65.40;94707.00;4914074;29;20199;-84
2022/06/26 04:14:27;;;;;;;4.78;2.42;;;;;;;23.51;65.28;94699.91;4914326;29;20275;-84
2022/06/26 04:16:53;;;;;;;5.93;2.40;;;;;;;23.53;65.24;94692.66;4913884;29;20191;-86
2022/06/26 04:19:20;;;;;;;6.65;3.00;;;;;;;23.66;65.00;94700.41;4914264;29;20187;-86
2022/06/26 04:21:47;;;;;;;4.68;2.83;;;;;;;23.76;64.99;94705.09;4913687;29;20243;-83
2022/06/26 04:24:14;;;;;;;5.50;2.53;;;;;;;23.82;64.94;94699.00;4914103;29;20200;-84
2022/06/26 04:26:42;;;;;;;3.58;2.80;;;;;;;23.87;65.05;94706.97;4914064;29;20229;-81
2022/06/26 04:29:09;;;;;;;4.75;2.65;;;;;;;23.94;64.91;94705.06;4914192;29;20196;-79
2022/06/26 04:31:36;;;;;;;6.72;3.10;;;;;;;24.00;65.25;94695.53;4914266;29;20232;-79
2022/06/26 04:34:03;;;;;;;6.53;3.08;;;;;;;24.07;65.19;94700.69;4914001;29;20668;-85
2022/06/26 04:36:29;;;;;;;4.05;2.78;;;;;;;24.14;65.19;94704.03;4915854;29;20664;-84
2022/06/26 04:38:56;;;;;;;3.40;2.97;;;;;;;24.14;65.20;94690.97;4917105;29;20204;-85
2022/06/26 04:41:39;;;;;;;4.28;2.88;;;;;;;24.21;65.25;94702.09;4917764;29;20231;-84
2022/06/26 04:44:09;;;;;;;7.43;3.22;;;;;;;24.27;64.88;94698.63;4917505;29;20202;-85
2022/06/26 04:46:37;;;;;;;6.22;3.72;;;;;;;24.33;64.96;94702.16;4917278;29;20199;-84
2022/06/26 04:49:05;;;;;;;6.85;4.22;;;;;;;24.38;64.74;94704.94;4917823;29;20203;-85
2022/06/26 04:51:34;;;;;;;5.65;3.35;;;;;;;24.42;64.39;94699.03;4917878;29;20200;-83
2022/06/26 04:54:01;;;;;;;4.18;3.17;;;;;;;24.46;64.28;94696.75;4917146;29;20267;-85
2022/06/26 04:56:28;;;;;;;3.10;2.80;;;;;;;24.50;64.23;94703.16;4917390;29;20192;-84
2022/06/26 04:58:56;;;;;;;4.70;3.25;;;;;;;24.55;64.25;94703.25;4917291;29;20208;-84
2022/06/26 05:01:25;;;;;;;3.33;3.13;;;;;;;24.59;64.13;94707.03;4917385;29;20219;-85
2022/06/26 05:03:52;;;;;;;4.13;3.72;;;;;;;24.68;63.64;94710.13;4917373;29;20202;-86
2022/06/26 05:06:19;;;;;;;9.30;4.13;;;;;;;24.74;63.46;94711.81;4917563;29;20192;-87
2022/06/26 05:08:46;;;;;;;7.20;4.20;;;;;;;24.81;63.53;94709.91;4916813;29;20290;-85
2022/06/26 05:11:13;;;;;;;6.10;4.53;;;;;;;24.88;63.20;94715.84;4920002;29;20671;-85
2022/06/26 05:13:40;;;;;;;4.53;4.13;;;;;;;24.94;63.33;94720.16;4922968;29;20196;-76
2022/06/26 05:16:07;;;;;;;5.70;3.70;;;;;;;25.08;62.95;94723.38;4923306;29;20203;-83
2022/06/26 05:18:35;;;;;;;4.68;4.15;;;;;;;25.21;63.13;94723.16;4924483;29;20649;-85
2022/06/26 05:21:03;;;;;;;6.32;3.75;;;;;;;25.35;63.50;94726.38;4924698;29;20238;-84
2022/06/26 05:23:29;;;;;;;6.00;3.83;;;;;;;25.47;63.32;94732.38;4923398;29;20196;-84
2022/06/26 05:25:56;;;;;;;5.65;3.25;;;;;;;25.63;63.44;94740.56;4921001;29;20218;-78
2022/06/26 05:28:23;;;;;;;5.13;3.20;;;;;;;25.86;63.73;94745.78;4923933;29;20196;-85
2022/06/26 05:30:50;;;;;;;7.35;3.42;;;;;;;26.12;63.50;94741.84;4923284;29;20204;-86
2022/06/26 05:33:17;;;;;;;5.28;3.75;;;;;;;26.42;63.49;94756.53;4920646;29;20191;-86
2022/06/26 05:35:45;;;;;;;4.80;3.60;;;;;;;26.73;64.22;94753.47;4918298;29;20222;-82
2022/06/26 05:38:12;;;;;;;4.25;3.60;;;;;;;27.20;65.20;94747.13;4919011;29;20188;-82
2022/06/26 05:40:39;;;;;;;5.15;3.90;;;;;;;27.78;65.20;94756.41;4919220;29;20191;-81
2022/06/26 05:43:06;;;;;;;6.70;3.50;;;;;;;28.49;64.52;94757.22;4919770;29;20703;-75
2022/06/26 05:45:33;;;;;;;7.70;3.20;;;;;;;29.28;62.85;94755.06;4919638;29;20191;-85
2022/06/26 05:48:00;;;;;;;2.88;2.67;;;;;;;30.09;61.31;94758.13;4918467;29;20300;-84
2022/06/26 05:50:27;;;;;;;4.97;2.65;;;;;;;31.02;58.99;94765.25;4920289;29;20199;-77
2022/06/26 05:52:56;;;;;;;5.88;2.95;;;;;;;31.90;56.44;94764.13;4922321;29;20192;-78
2022/06/26 05:55:23;;;;;;;3.65;2.53;;;;;;;32.71;53.80;94777.00;4917356;29;20203;-85
2022/06/26 05:57:49;;;;;;;8.93;3.30;;;;;;;33.44;51.10;94772.78;4916127;29;20188;-85
2022/06/26 06:00:16;;;;;;;6.35;3.05;;;;;;;34.12;49.76;94774.50;4916213;29;20291;-85
2022/06/26 06:02:43;;;;;;;3.80;2.30;;;;;;;34.70;47.67;94782.25;4915856;29;20611;-88
2022/06/26 06:05:10;;;;;;;3.60;2.78;;;;;;;35.11;45.94;94776.38;4915950;29;20194;-86
2022/06/26 06:07:37;;;;;;;6.35;3.00;;;;;;;35.36;44.61;94775.94;4915283;29;20191;-83
2022/06/26 06:10:08;;;;;;;5.63;2.33;;;;;;;35.58;43.45;94775.34;4915839;29;20199;-81
2022/06/26 06:12:35;;;;;;;5.03;2.17;;;;;;;35.82;43.11;94777.03;4915769;29;20200;-81
2022/06/26 06:15:03;;;;;;;3.88;2.40;;;;;;;36.09;42.81;94779.72;4915879;29;20196;-81
2022/06/26 06:17:40;;;;;;;4.63;2.42;;;;;;;36.40;42.60;94765.78;4915409;29;20200;-80
2022/06/26 06:20:11;;;;;;;3.25;2.47;;;;;;;36.96;42.16;94777.91;4915559;29;20326;-78
2022/06/26 06:22:39;;;;;;;6.15;2.55;;;;;;;37.45;41.20;94778.13;4914931;29;20243;-83
2022/06/26 06:25:09;;;;;;;2.58;2.08;;;;;;;37.89;40.60;94777.25;4915595;29;20262;-83
2022/06/26 06:27:37;;;;;;;4.20;2.70;;;;;;;38.29;39.77;94779.88;4915831;29;20409;-77
2022/06/26 06:30:05;;;;;;;3.97;1.90;;;;;;;38.70;38.86;94784.09;4916893;29;20184;-79
2022/06/26 06:32:32;;;;;;;4.30;2.92;;;;;;;39.12;37.88;94791.34;4917137;29;20210;-76
2022/06/26 06:35:01;;;;;;;4.35;2.10;;;;;;;39.49;37.30;94791.00;4917189;29;20196;-75
2022/06/26 06:37:28;;;;;;;2.55;2.00;;;;;;;39.84;36.55;94792.47;4916227;29;20287;-81
2022/06/26 06:39:55;;;;;;;2.95;2.22;;;;;;;40.22;35.91;94788.25;4918214;29;20207;-82
2022/06/26 06:42:23;;;;;;;2.40;2.20;;;;;;;40.60;35.32;94789.00;4916738;29;20211;-75
2022/06/26 06:44:50;;;;;;;3.70;2.30;;;;;;;40.98;35.14;94780.06;4915018;29;20200;-76
2022/06/26 06:47:17;;;;;;;2.95;2.20;;;;;;;41.46;34.75;94786.75;4915208;29;20203;-76
2022/06/26 06:49:44;;;;;;;5.35;2.65;;;;;;;41.89;33.85;94795.47;4914922;29;20573;-76
2022/06/26 06:52:11;;;;;;;3.95;1.90;;;;;;;42.29;33.39;94784.84;4915200;29;20286;-77
2022/06/26 06:54:39;;;;;;;2.78;2.03;;;;;;;42.65;32.56;94786.72;4914379;29;20199;-75
2022/06/26 06:57:06;;;;;;;3.65;2.08;;;;;;;43.07;31.82;94787.19;4914804;29;20198;-86
2022/06/26 06:59:34;;;;;;;4.47;2.28;;;;;;;43.46;31.54;94787.47;4914229;29;20199;-80
2022/06/26 07:02:01;;;;;;;2.58;1.98;;;;;;;43.82;30.86;94788.38;4914612;29;20230;-85
2022/06/26 07:04:28;;;;;;;3.33;2.13;;;;;;;44.10;30.36;94779.44;4914627;29;20205;-85
2022/06/26 07:06:55;;;;;;;5.28;2.10;;;;;;;44.47;30.00;94788.78;4914513;29;20199;-85
2022/06/26 07:09:22;;;;;;;2.88;2.20;;;;;;;44.77;29.74;94786.38;4914399;29;20275;-85
2022/06/26 07:11:49;;;;;;;4.78;2.13;;;;;;;44.95;28.77;94775.94;4914387;29;20199;-85
2022/06/26 07:14:16;;;;;;;5.75;2.10;;;;;;;45.28;28.38;94788.94;4914411;29;20206;-83
2022/06/26 07:16:45;;;;;;;3.67;2.85;;;;;;;45.49;28.33;94785.88;4914408;29;20283;-81
2022/06/26 07:19:12;;;;;;;3.60;2.22;;;;;;;45.65;28.07;94785.00;4914677;29;20218;-81
2022/06/26 07:21:40;;;;;;;9.48;7.32;;;;;;;45.83;27.53;94785.31;4914083;29;20239;-78
2022/06/26 07:24:07;;;;;;;7.00;6.38;;;;;;;46.07;27.10;94792.25;4914682;29;20199;-78
2022/06/26 07:26:34;;;;;;;6.78;5.20;;;;;;;46.22;26.91;94794.84;4914076;29;20678;-84
2022/06/26 07:29:01;;;;;;;8.25;4.70;;;;;;;46.38;26.84;94796.63;4914676;29;20266;-82
2022/06/26 07:31:28;;;;;;;4.13;3.72;;;;;;;46.50;26.36;94796.41;4914514;29;20187;-80
2022/06/26 07:34:16;;;;;;;6.43;3.80;;;;;;;46.60;26.77;94798.53;4914810;29;20191;-81
2022/06/26 07:36:44;;;;;;;6.35;3.40;;;;;;;46.68;26.76;94797.47;4914731;29;20197;-77
2022/06/26 07:39:12;;;;;;;5.57;3.42;;;;;;;46.70;26.39;94786.28;4915280;29;20203;-82
2022/06/26 07:41:39;;;;;;;7.63;3.05;;;;;;;46.69;25.89;94777.38;4915000;29;20248;-80
2022/06/26 07:44:07;;;;;;;3.33;2.78;;;;;;;46.80;26.21;94792.97;4914669;29;20192;-79
2022/06/26 07:46:34;;;;;;;4.97;2.72;;;;;;;46.81;25.62;94784.50;4914190;29;20191;-79
2022/06/26 07:49:03;;;;;;;4.03;2.97;;;;;;;46.84;26.12;94785.66;4914846;29;20237;-86
2022/06/26 07:51:30;;;;;;;3.35;2.50;;;;;;;46.83;26.02;94784.13;4914282;29;20195;-85
2022/06/26 07:53:57;;;;;;;3.65;2.30;;;;;;;46.82;25.80;94782.56;4914818;29;20195;-84
2022/06/26 07:56:25;;;;;;;2.95;2.10;;;;;;;46.85;25.74;94784.50;4914519;29;20766;-82
2022/06/26 07:58:52;;;;;;;4.57;2.58;;;;;;;46.78;25.62;94780.59;4914284;29;20205;-85
2022/06/26 08:01:19;;;;;;;4.25;2.55;;;;;;;46.78;25.34;94779.81;4914268;29;20705;-82
2022/06/26 08:03:46;;;;;;;3.80;2.50;;;;;;;46.76;25.62;94779.38;4914245;29;20230;-77
2022/06/26 08:06:15;;;;;;;2.63;2.33;;;;;;;46.72;25.41;94786.66;4914473;29;20193;-78
2022/06/26 08:08:42;;;;;;;5.38;2.55;;;;;;;46.67;25.02;94782.38;4915470;29;20194;-78
2022/06/26 08:11:10;;;;;;;3.70;2.40;;;;;;;46.61;25.59;94789.25;4915646;29;20225;-80
2022/06/26 08:13:36;;;;;;;3.78;2.60;;;;;;;46.53;25.64;94779.44;4918008;29;20628;-83
2022/06/26 08:16:03;;;;;;;6.28;2.55;;;;;;;46.47;25.62;94786.34;4917846;29;20199;-79
2022/06/26 08:18:30;;;;;;;6.32;2.42;;;;;;;46.38;25.46;94775.78;4918231;29;20575;-82
2022/06/26 08:20:57;;;;;;;2.58;2.30;;;;;;;46.23;25.18;94777.47;4918001;29;20233;-76
2022/06/26 08:23:37;;;;;;;5.13;2.72;;;;;;;46.13;25.78;94766.47;4918001;29;20231;-80
2022/06/26 08:26:04;;;;;;;4.93;2.83;;;;;;;46.05;25.45;94773.72;4917668;29;20202;-78
2022/06/26 08:28:30;;;;;;;4.63;3.03;;;;;;;45.96;25.88;94782.06;4918072;29;20194;-80
2022/06/26 08:30:57;;;;;;;5.05;2.30;;;;;;;45.84;25.93;94784.97;4917576;29;20604;-79
2022/06/26 08:33:24;;;;;;;2.28;2.03;;;;;;;45.73;25.81;94783.97;4917663;29;20191;-77
2022/06/26 08:35:51;;;;;;;3.10;2.55;;;;;;;45.59;25.42;94778.31;4917438;29;20191;-83
2022/06/26 08:38:18;;;;;;;2.50;2.25;;;;;;;45.46;26.12;94783.13;4917504;29;20198;-85
2022/06/26 08:40:46;;;;;;;4.72;2.40;;;;;;;45.33;26.17;94785.16;4917709;29;20290;-85
2022/06/26 08:43:14;;;;;;;2.72;2.45;;;;;;;45.13;26.38;94772.84;4916954;29;20719;-80
2022/06/26 08:45:44;;;;;;;4.93;2.65;;;;;;;45.00;26.30;94777.59;4917913;29;20199;-85
2022/06/26 08:48:14;;;;;;;4.97;2.28;;;;;;;44.83;26.21;94778.78;4918550;29;20195;-87
2022/06/26 08:50:41;;;;;;;4.10;2.28;;;;;;;44.71;26.36;94785.09;4918095;29;20225;-78
2022/06/26 08:53:09;;;;;;;4.13;2.60;;;;;;;44.48;25.80;94768.00;4918018;29;20255;-80
2022/06/26 08:55:36;;;;;;;3.33;2.13;;;;;;;44.37;26.36;94773.16;4917781;29;20199;-77
2022/06/26 08:58:05;;;;;;;4.45;2.22;;;;;;;44.20;26.33;94781.59;4916894;29;20224;-75
2022/06/26 09:00:32;;;;;;;3.70;2.17;;;;;;;44.03;26.35;94780.81;4916864;29;20191;-77
2022/06/26 09:02:59;;;;;;;3.97;2.08;;;;;;;43.83;26.59;94771.09;4916603;29;20273;-80
2022/06/26 09:05:25;;;;;;;3.67;2.13;;;;;;;43.67;26.17;94765.69;4917118;29;20194;-77
2022/06/26 09:07:56;;;;;;;5.50;2.22;;;;;;;43.50;26.81;94772.19;4916868;29;20659;-77
2022/06/26 09:10:27;;;;;;;2.40;2.20;;;;;;;43.35;26.63;94767.50;4917144;29;20198;-75
2022/06/26 09:12:56;;;;;;;3.55;2.80;;;;;;;43.18;27.03;94767.81;4917317;29;20199;-74
2022/06/26 09:15:26;;;;;;;3.33;2.35;;;;;;;42.99;26.98;94763.06;4916639;29;20572;-76
2022/06/26 09:18:01;;;;;;;2.92;2.35;;;;;;;42.82;27.06;94774.91;4916413;29;20686;-85
2022/06/26 09:20:29;;;;;;;3.20;2.88;;;;;;;42.64;26.86;94765.53;4916466;29;20223;-75
2022/06/26 09:22:57;;;;;;;2.95;2.53;;;;;;;42.42;27.63;94756.81;4915574;29;20702;-77
2022/06/26 09:25:35;;;;;;;4.10;2.65;;;;;;;42.22;27.08;94761.19;4916630;29;20694;-74
2022/06/26 09:28:10;;;;;;;2.75;2.05;;;;;;;42.04;27.68;94765.22;4916470;29;20187;-82
2022/06/26 09:30:53;;;;;;;4.30;2.33;;;;;;;41.89;27.33;94765.91;4916847;29;20202;-76
2022/06/26 09:33:26;;;;;;;4.35;2.47;;;;;;;41.72;27.38;94770.34;4917628;29;20196;-83
2022/06/26 09:35:54;;;;;;;3.30;2.17;;;;;;;41.56;27.75;94758.66;4917512;29;20207;-77
2022/06/26 09:38:23;;;;;;;2.47;1.95;;;;;;;41.44;27.49;94761.31;4916357;29;20214;-80
2022/06/26 09:40:54;;;;;;;2.53;2.10;;;;;;;41.26;27.36;94753.41;4915887;29;20200;-82
2022/06/26 09:43:30;;;;;;;2.80;2.35;;;;;;;41.03;27.95;94754.91;4916268;29;20234;-85
2022/06/26 09:45:59;;;;;;;2.42;2.22;;;;;;;40.86;27.87;94755.81;4916288;29;20187;-86
2022/06/26 09:48:27;;;;;;;3.83;2.22;;;;;;;40.78;27.77;94775.44;4916267;29;20576;-86
2022/06/26 09:50:55;;;;;;;2.97;2.33;;;;;;;40.62;28.21;94769.88;4916481;29;20214;-82
2022/06/26 09:53:23;;;;;;;3.70;2.17;;;;;;;40.38;28.27;94763.25;4915710;29;20298;-75
2022/06/26 09:55:52;;;;;;;4.00;1.80;;;;;;;40.30;28.52;94764.06;4916586;29;20210;-77
2022/06/26 09:58:20;;;;;;;5.75;2.35;;;;;;;40.16;28.37;94765.41;4917833;29;20196;-77
2022/06/26 10:06:28;;;;;;;3.15;1.83;;;;;;;39.74;28.47;94779.44;4916041;29;20693;-78
2022/06/26 10:08:56;;;;;;;4.63;2.38;;;;;;;39.59;28.67;94763.88;4916321;29;20202;-84
2022/06/26 10:11:27;;;;;;;2.75;1.83;;;;;;;39.36;28.94;94747.25;4915876;29;20207;-75
2022/06/26 10:13:57;;;;;;;2.33;2.03;;;;;;;39.30;28.79;94754.66;4915797;29;20230;-74
2022/06/26 10:17:03;;;;;;;2.35;2.08;;;;;;;39.17;29.02;94763.63;4916250;29;20207;-75
2022/06/26 10:19:40;;;;;;;2.63;2.00;;;;;;;39.02;29.38;94751.53;4857489;29;20314;-74
2022/06/26 10:22:08;;;;;;;4.18;2.05;;;;;;;38.90;29.16;94759.41;4857604;29;20200;-76
2022/06/26 10:24:35;;;;;;;3.88;2.42;;;;;;;38.80;29.55;94752.47;4858220;29;20229;-78
2022/06/26 10:27:04;;;;;;;2.80;1.67;;;;;;;38.71;29.28;94740.19;4860930;29;20205;-76
2022/06/26 10:29:36;;;;;;;2.45;1.90;;;;;;;38.59;29.60;94744.28;4862795;29;20227;-75
2022/06/26 10:32:03;;;;;;;5.05;2.00;;;;;;;38.48;29.60;94729.66;4864706;29;20209;-75
2022/06/26 10:34:31;;;;;;;3.97;1.70;;;;;;;38.30;29.67;94718.13;4862423;29;20210;-75
2022/06/26 10:37:04;;;;;;;4.95;2.30;;;;;;;38.26;29.89;94732.41;4862167;29;20758;-76
2022/06/26 10:39:42;;;;;;;3.35;1.95;;;;;;;38.14;30.09;94717.78;4862141;29;20201;-75
2022/06/26 10:45:04;;;;;;;6.15;2.80;;;;;;;37.90;30.25;94722.75;4857114;29;20219;-75
2022/06/26 10:47:42;;;;;;;2.75;2.00;;;;;;;37.79;30.38;94726.78;4857201;29;20600;-74
2022/06/26 10:50:23;;;;;;;3.05;1.92;;;;;;;37.66;30.30;94717.78;4856755;29;20198;-77
2022/06/26 10:52:51;;;;;;;2.15;1.95;;;;;;;37.54;30.56;94721.03;4856953;29;20233;-76
2022/06/26 10:55:18;;;;;;;2.05;1.83;;;;;;;37.44;30.48;94723.16;4890585;29;20230;-76
2022/06/26 10:57:45;;;;;;;2.13;1.92;;;;;;;37.33;30.50;94711.94;4915050;29;20207;-75
2022/06/26 11:00:16;;;;;;;2.17;1.98;;;;;;;37.24;30.54;94716.47;4914732;29;20195;-75
2022/06/26 11:02:45;;;;;;;2.35;1.80;;;;;;;37.13;30.56;94722.03;4915025;29;20195;-75
2022/06/26 11:05:13;;;;;;;2.03;1.73;;;;;;;37.04;30.68;94720.41;4914671;29;20259;-75
2022/06/26 11:07:44;;;;;;;2.30;1.77;;;;;;;36.95;30.58;94720.34;4914895;29;20219;-78
2022/06/26 11:10:15;;;;;;;1.67;1.58;;;;;;;36.86;30.55;94717.59;4914685;29;20222;-74
2022/06/26 11:12:43;;;;;;;1.80;1.67;;;;;;;36.75;30.27;94712.84;4914828;29;20184;-75
2022/06/26 11:15:22;;;;;;;3.80;1.40;;;;;;;36.53;30.14;94689.59;4914975;29;20188;-77
2022/06/26 11:17:56;;;;;;;1.98;1.60;;;;;;;36.55;30.48;94701.53;4917266;29;20254;-81
2022/06/26 11:23:20;;;;;;;1.67;1.48;;;;;;;36.40;30.67;94702.66;4918403;29;20226;-84
2022/06/26 11:25:49;;;;;;;3.05;1.95;;;;;;;36.34;30.63;94703.84;4917555;29;20195;-85
2022/06/26 11:28:17;;;;;;;3.47;1.70;;;;;;;36.30;30.79;94710.06;4917109;29;20200;-85
2022/06/26 11:30:46;;;;;;;1.95;1.67;;;;;;;36.23;30.75;94707.81;4915214;29;20199;-87
2022/06/26 11:33:13;;;;;;;3.17;1.85;;;;;;;36.24;31.04;94708.63;4915348;29;20289;-86
2022/06/26 11:35:41;;;;;;;2.78;1.70;;;;;;;36.25;31.04;94710.19;4914566;29;20192;-87
2022/06/26 11:38:13;;;;;;;1.83;1.67;;;;;;;36.28;31.00;94705.03;4915088;29;20278;-81
2022/06/26 11:40:41;;;;;;;2.67;2.25;;;;;;;36.26;31.08;94696.56;4914938;29;20664;-85
2022/06/26 11:43:10;;;;;;;2.85;1.73;;;;;;;36.37;31.22;94705.13;4915439;29;20223;-86
2022/06/26 11:45:39;;;;;;;1.77;1.67;;;;;;;36.36;31.54;94704.34;4914486;29;20195;-83
2022/06/26 11:48:08;;;;;;;1.85;1.60;;;;;;;36.39;31.47;94702.94;4915847;29;20575;-83
2022/06/26 11:50:37;;;;;;;2.00;1.83;;;;;;;36.42;31.68;94697.78;4914748;29;20204;-84
2022/06/26 11:53:05;;;;;;;3.88;1.85;;;;;;;36.47;31.79;94699.59;4914504;29;20199;-83